createdAt,value
2018-04-14T00:01:09.420Z,8.80
2018-04-14T00:03:36.978Z,9.43
2018-04-14T00:06:04.433Z,9.63
2018-04-14T00:08:31.888Z,8.70
2018-04-14T00:10:59.348Z,9.10
2018-04-14T00:13:26.798Z,9.10
2018-04-14T00:15:54.267Z,9.33
2018-04-14T00:18:21.755Z,8.90
2018-04-14T00:20:49.224Z,9.10
2018-04-14T00:23:17.452Z,9.60
2018-04-14T00:25:44.943Z,9.47
2018-04-14T00:28:13.171Z,9.30
2018-04-14T00:30:40.629Z,9.33
2018-04-14T00:33:08.095Z,9.20
2018-04-14T00:35:35.565Z,8.17
2018-04-14T00:38:03.023Z,8.60
2018-04-14T00:40:30.465Z,8.37
2018-04-14T00:42:57.924Z,8.97
2018-04-14T00:45:25.405Z,8.10
2018-04-14T00:47:52.858Z,8.27
2018-04-14T00:50:20.391Z,7.40
2018-04-14T00:52:48.650Z,7.80
2018-04-14T00:55:16.918Z,7.73
2018-04-14T00:57:45.375Z,7.43
2018-04-14T01:00:13.607Z,8.00
2018-04-14T01:02:41.071Z,7.77
2018-04-14T01:05:08.636Z,7.23
2018-04-14T01:07:36.076Z,7.97
2018-04-14T01:10:03.555Z,7.00
2018-04-14T01:12:31.836Z,7.30
2018-04-14T01:14:59.389Z,7.57
2018-04-14T01:17:26.851Z,7.17
2018-04-14T01:19:54.295Z,6.77
2018-04-14T01:22:21.751Z,7.53
2018-04-14T01:24:49.227Z,6.63
2018-04-14T01:27:17.456Z,6.93
2018-04-14T01:29:45.027Z,7.30
2018-04-14T01:32:12.891Z,7.00
2018-04-14T01:34:40.360Z,7.67
2018-04-14T01:37:07.852Z,7.57
2018-04-14T01:39:36.117Z,7.40
2018-04-14T01:42:04.345Z,6.93
2018-04-14T01:44:31.832Z,6.77
2018-04-14T01:46:59.295Z,6.87
2018-04-14T01:49:26.734Z,7.00
2018-04-14T01:51:54.358Z,5.97
2018-04-14T01:54:21.819Z,7.07
2018-04-14T01:56:49.303Z,6.60
2018-04-14T01:59:16.883Z,7.03
2018-04-14T02:01:44.341Z,6.33
2018-04-14T02:04:11.789Z,7.03
2018-04-14T02:06:40.780Z,7.47
2018-04-14T02:09:08.367Z,6.70
2018-04-14T02:11:36.608Z,6.80
2018-04-14T02:14:04.079Z,6.73
2018-04-14T02:16:31.563Z,7.87
2018-04-14T02:18:59.809Z,6.60
2018-04-14T02:21:27.273Z,6.70
2018-04-14T02:23:55.441Z,7.40
2018-04-14T02:26:24.392Z,7.90
2018-04-14T02:28:51.834Z,7.60
2018-04-14T02:31:19.329Z,7.97
2018-04-14T02:33:46.881Z,6.97
2018-04-14T02:36:14.361Z,7.33
2018-04-14T02:38:41.843Z,7.13
2018-04-14T02:41:10.050Z,7.10
2018-04-14T02:43:37.516Z,6.87
2018-04-14T02:46:05.001Z,6.60
2018-04-14T02:48:33.215Z,7.10
2018-04-14T02:51:00.743Z,6.40
2018-04-14T02:53:28.207Z,6.90
2018-04-14T02:55:55.685Z,6.37
2018-04-14T02:58:23.930Z,6.93
2018-04-14T03:00:51.372Z,6.13
2018-04-14T03:03:18.815Z,6.50
2018-04-14T03:05:46.350Z,7.57
2018-04-14T03:08:13.783Z,7.23
2018-04-14T03:10:41.245Z,6.90
2018-04-14T03:13:08.721Z,6.80
2018-04-14T03:15:36.217Z,7.20
2018-04-14T03:18:03.684Z,7.63
2018-04-14T03:20:31.347Z,7.17
2018-04-14T03:22:58.811Z,7.00
2018-04-14T03:25:26.270Z,7.60
2018-04-14T03:27:54.540Z,7.67
2018-04-14T03:30:22.748Z,7.63
2018-04-14T03:32:50.267Z,7.53
2018-04-14T03:35:17.747Z,8.30
2018-04-14T03:37:45.974Z,8.20
2018-04-14T03:40:13.427Z,8.17
2018-04-14T03:42:40.927Z,7.80
2018-04-14T03:45:08.451Z,8.33
2018-04-14T03:47:35.906Z,8.53
2018-04-14T03:50:03.376Z,8.10
2018-04-14T03:52:30.839Z,7.43
2018-04-14T03:54:58.325Z,8.43
2018-04-14T03:57:26.542Z,7.73
2018-04-14T03:59:54.012Z,7.33
2018-04-14T04:02:21.567Z,7.13
2018-04-14T04:04:49.127Z,7.03
2018-04-14T04:07:16.592Z,6.43
2018-04-14T04:09:44.074Z,7.77
2018-04-14T04:12:12.416Z,6.60
2018-04-14T04:14:39.875Z,7.20
2018-04-14T04:17:07.331Z,7.47
2018-04-14T04:19:46.795Z,7.70
2018-04-14T04:22:26.296Z,7.83
2018-04-14T04:27:59.358Z,7.60
2018-04-14T04:30:27.576Z,6.87
2018-04-14T04:32:55.046Z,6.93
2018-04-14T04:35:22.519Z,7.17
2018-04-14T04:37:49.964Z,7.47
2018-04-14T04:40:17.442Z,6.60
2018-04-14T04:42:45.003Z,7.57
2018-04-14T04:45:12.763Z,8.47
2018-04-14T04:47:40.245Z,7.73
2018-04-14T04:50:08.483Z,8.50
2018-04-14T04:52:35.955Z,8.13
2018-04-14T04:55:04.168Z,7.17
2018-04-14T04:57:31.616Z,8.87
2018-04-14T04:59:59.055Z,8.87
2018-04-14T05:02:27.323Z,8.57
2018-04-14T05:04:54.774Z,8.27
2018-04-14T05:07:22.235Z,8.20
2018-04-14T05:09:49.746Z,8.33
2018-04-14T05:12:17.251Z,7.90
2018-04-14T05:14:44.806Z,9.13
2018-04-14T05:17:12.272Z,9.33
2018-04-14T05:19:39.802Z,9.37
2018-04-14T05:22:07.396Z,9.27
2018-04-14T05:24:35.619Z,9.07
2018-04-14T05:27:03.089Z,8.70
2018-04-14T05:29:30.671Z,8.03
2018-04-14T05:31:58.126Z,9.00
2018-04-14T05:34:25.603Z,8.27
2018-04-14T05:36:53.946Z,8.97
2018-04-14T05:39:21.395Z,7.63
2018-04-14T05:41:48.843Z,7.23
2018-04-14T05:44:16.296Z,7.07
2018-04-14T05:46:43.788Z,6.80
2018-04-14T05:49:11.322Z,7.00
2018-04-14T05:51:38.952Z,6.03
2018-04-14T05:54:06.419Z,7.20
2018-04-14T05:56:33.905Z,7.30
2018-04-14T05:59:01.343Z,6.73
2018-04-14T06:01:28.790Z,7.13
2018-04-14T06:03:56.267Z,7.67
2018-04-14T06:06:23.727Z,7.13
2018-04-14T06:08:51.216Z,7.33
2018-04-14T06:11:19.450Z,8.00
2018-04-14T06:13:46.912Z,6.87
2018-04-14T06:16:14.393Z,7.50
2018-04-14T06:18:41.848Z,7.23
2018-04-14T06:21:09.404Z,7.13
2018-04-14T06:23:36.875Z,6.83
2018-04-14T06:26:05.678Z,7.17
2018-04-14T06:28:33.160Z,6.97
2018-04-14T06:31:00.680Z,7.37
2018-04-14T06:33:28.927Z,6.90
2018-04-14T06:35:56.481Z,6.80
2018-04-14T06:38:23.953Z,6.93
2018-04-14T06:40:51.421Z,6.57
2018-04-14T06:43:18.863Z,6.13
2018-04-14T06:45:46.319Z,6.00
2018-04-14T06:48:13.786Z,7.20
2018-04-14T06:50:41.292Z,6.90
2018-04-14T06:53:08.731Z,6.17
2018-04-14T06:55:36.206Z,5.73
2018-04-14T06:58:03.651Z,5.23
2018-04-14T07:00:31.176Z,5.33
2018-04-14T07:02:58.650Z,4.80
2018-04-14T07:05:26.915Z,8.17
2018-04-14T07:07:54.387Z,5.07
2018-04-14T07:10:22.591Z,5.57
2018-04-14T07:12:50.073Z,5.30
2018-04-14T07:15:17.530Z,4.60
2018-04-14T07:17:44.988Z,4.93
2018-04-14T07:20:12.458Z,4.87
2018-04-14T07:22:40.024Z,4.70
2018-04-14T07:25:07.490Z,4.60
2018-04-14T07:27:35.732Z,4.67
2018-04-14T07:30:03.197Z,4.33
2018-04-14T07:32:30.755Z,3.80
2018-04-14T07:34:58.211Z,4.27
2018-04-14T07:37:25.765Z,4.20
2018-04-14T07:39:53.265Z,3.80
2018-04-14T07:42:21.485Z,4.13
2018-04-14T07:44:48.970Z,4.27
2018-04-14T07:47:16.532Z,4.77
2018-04-14T07:49:43.973Z,4.90
2018-04-14T07:52:11.496Z,4.70
2018-04-14T07:54:38.935Z,5.20
2018-04-14T07:57:06.384Z,4.47
2018-04-14T07:59:34.637Z,5.20
2018-04-14T08:02:02.105Z,5.53
2018-04-14T08:04:30.344Z,5.60
2018-04-14T08:06:57.792Z,6.20
2018-04-14T08:09:25.235Z,5.17
2018-04-14T08:11:52.714Z,5.33
2018-04-14T08:14:20.191Z,4.13
2018-04-14T08:16:47.639Z,3.83
2018-04-14T08:19:15.107Z,4.33
2018-04-14T08:21:42.582Z,4.78
2018-04-14T08:24:10.789Z,4.13
2018-04-14T08:26:38.284Z,4.37
2018-04-14T08:29:05.749Z,4.40
2018-04-14T08:31:33.225Z,4.90
2018-04-14T08:34:01.468Z,5.50
2018-04-14T08:36:28.928Z,5.00
2018-04-14T08:38:56.373Z,7.47
2018-04-14T08:41:23.835Z,8.38
2018-04-14T08:43:51.275Z,6.50
2018-04-14T08:46:18.751Z,5.83
2018-04-14T08:48:46.204Z,5.57
2018-04-14T08:51:13.688Z,6.80
2018-04-14T08:53:41.149Z,8.03
2018-04-14T08:56:08.591Z,6.73
2018-04-14T08:58:36.073Z,5.17
2018-04-14T09:01:03.535Z,5.63
2018-04-14T09:03:31.839Z,5.85
2018-04-14T09:05:59.333Z,9.43
2018-04-14T09:08:26.768Z,6.85
2018-04-14T09:10:54.225Z,5.82
2018-04-14T09:13:21.698Z,5.32
2018-04-14T09:15:52.072Z,5.62
2018-04-14T09:18:19.510Z,6.35
2018-04-14T09:20:47.756Z,5.72
2018-04-14T09:23:15.210Z,4.87
2018-04-14T09:25:42.675Z,4.55
2018-04-14T09:28:10.155Z,5.00
2018-04-14T09:30:38.367Z,4.67
2018-04-14T09:33:05.835Z,7.07
2018-04-14T09:35:33.287Z,5.73
2018-04-14T09:38:00.837Z,4.20
2018-04-14T09:40:28.277Z,4.28
2018-04-14T09:42:55.791Z,3.95
2018-04-14T09:45:23.236Z,4.75
2018-04-14T09:47:50.677Z,5.07
2018-04-14T09:50:18.136Z,4.70
2018-04-14T09:52:45.612Z,4.20
2018-04-14T09:55:13.075Z,3.58
2018-04-14T09:57:40.516Z,3.97
2018-04-14T10:00:07.988Z,3.87
2018-04-14T10:02:41.264Z,4.40
2018-04-14T10:05:08.747Z,6.82
2018-04-14T10:07:36.202Z,31.25
2018-04-14T10:10:03.688Z,11.40
2018-04-14T10:12:31.951Z,6.12
2018-04-14T10:15:00.202Z,15.18
2018-04-14T10:17:27.686Z,5.10
2018-04-14T10:19:55.901Z,5.30
2018-04-14T10:22:23.382Z,5.32
2018-04-14T10:24:51.630Z,5.65
2018-04-14T10:27:19.186Z,6.22
2018-04-14T10:29:46.672Z,7.55
2018-04-14T10:32:14.142Z,11.80
2018-04-14T10:34:41.586Z,3.60
2018-04-14T10:37:09.052Z,6.68
2018-04-14T10:39:36.547Z,4.28
2018-04-14T10:42:03.935Z,4.18
2018-04-14T10:44:31.413Z,4.28
2018-04-14T10:46:58.850Z,4.57
2018-04-14T10:49:26.314Z,3.30
2018-04-14T10:51:53.790Z,4.97
2018-04-14T10:54:21.248Z,4.80
2018-04-14T10:56:48.694Z,5.18
2018-04-14T10:59:16.930Z,3.05
2018-04-14T11:01:44.408Z,3.33
2018-04-14T11:04:11.890Z,3.30
2018-04-14T11:06:39.361Z,10.88
2018-04-14T11:09:06.807Z,2.50
2018-04-14T11:11:34.257Z,3.65
2018-04-14T11:14:01.725Z,4.85
2018-04-14T11:16:29.188Z,3.65
2018-04-14T11:18:56.629Z,3.50
2018-04-14T11:21:24.135Z,4.30
2018-04-14T11:23:51.587Z,4.87
2018-04-14T11:26:19.035Z,4.62
2018-04-14T11:28:47.273Z,4.53
2018-04-14T11:31:14.791Z,4.07
2018-04-14T11:33:42.194Z,4.40
2018-04-14T11:36:09.657Z,3.45
2018-04-14T11:38:37.127Z,4.32
2018-04-14T11:41:05.361Z,4.03
2018-04-14T11:43:32.832Z,4.57
2018-04-14T11:46:00.310Z,4.60
2018-04-14T11:48:28.013Z,3.75
2018-04-14T11:50:55.533Z,3.80
2018-04-14T11:53:22.930Z,4.40
2018-04-14T11:55:50.408Z,6.55
2018-04-14T11:58:17.882Z,6.85
2018-04-14T12:00:45.347Z,6.65
2018-04-14T12:03:12.838Z,7.18
2018-04-14T12:05:41.052Z,5.28
2018-04-14T12:08:08.497Z,4.00
2018-04-14T12:10:36.045Z,3.90
2018-04-14T12:13:03.542Z,3.80
2018-04-14T12:15:31.025Z,4.97
2018-04-14T12:17:58.477Z,4.75
2018-04-14T12:20:25.937Z,5.12
2018-04-14T12:22:54.151Z,4.20
2018-04-14T12:25:21.626Z,4.60
2018-04-14T12:27:49.069Z,4.00
2018-04-14T12:30:16.553Z,4.05
2018-04-14T12:32:44.087Z,6.18
2018-04-14T12:35:11.662Z,3.87
2018-04-14T12:37:39.245Z,3.80
2018-04-14T12:40:07.551Z,3.78
2018-04-14T12:42:35.072Z,4.20
2018-04-14T12:45:02.643Z,3.70
2018-04-14T12:47:30.208Z,3.58
2018-04-14T12:49:57.728Z,3.60
2018-04-14T12:52:25.256Z,3.90
2018-04-14T12:54:52.788Z,3.78
2018-04-14T12:57:21.095Z,3.95
2018-04-14T12:59:48.630Z,5.97
2018-04-14T13:02:16.912Z,4.57
2018-04-14T13:04:44.464Z,5.20
2018-04-14T13:07:12.002Z,5.47
2018-04-14T13:09:40.326Z,4.85
2018-04-14T13:12:07.834Z,4.55
2018-04-14T13:14:35.381Z,4.07
2018-04-14T13:17:02.940Z,5.28
2018-04-14T13:19:30.476Z,5.25
2018-04-14T13:21:58.014Z,4.70
2018-04-14T13:24:25.576Z,5.03
2018-04-14T13:26:53.132Z,4.18
2018-04-14T13:29:20.703Z,3.47
2018-04-14T13:31:48.202Z,3.53
2018-04-14T13:34:15.698Z,3.55
2018-04-14T13:36:43.277Z,4.35
2018-04-14T13:39:10.823Z,4.00
2018-04-14T13:41:38.332Z,4.75
2018-04-14T13:44:05.925Z,4.85
2018-04-14T13:46:33.452Z,4.65
2018-04-14T13:49:00.994Z,5.00
2018-04-14T13:51:28.512Z,5.62
2018-04-14T13:53:56.058Z,5.03
2018-04-14T13:56:23.654Z,4.62
2018-04-14T13:58:51.209Z,4.70
2018-04-14T14:01:18.788Z,5.85
2018-04-14T14:03:46.289Z,4.70
2018-04-14T14:06:14.566Z,5.12
2018-04-14T14:08:42.119Z,5.12
2018-04-14T14:11:09.983Z,7.80
2018-04-14T14:13:38.274Z,7.68
2018-04-14T14:16:05.847Z,7.85
2018-04-14T14:18:33.389Z,9.20
2018-04-14T14:21:01.669Z,10.77
2018-04-14T14:23:29.186Z,7.30
2018-04-14T14:25:56.720Z,13.32
2018-04-14T14:28:24.277Z,4.70
2018-04-14T14:30:51.819Z,5.93
2018-04-14T14:33:19.414Z,6.25
2018-04-14T14:35:46.945Z,6.70
2018-04-14T14:38:15.325Z,5.65
2018-04-14T14:40:42.902Z,6.68
2018-04-14T14:43:10.495Z,7.93
2018-04-14T14:45:38.817Z,8.57
2018-04-14T14:48:06.363Z,19.83
2018-04-14T14:50:33.911Z,9.93
2018-04-14T14:53:01.489Z,10.30
2018-04-14T14:55:29.042Z,16.75
2018-04-14T14:57:56.590Z,10.93
2018-04-14T15:00:24.845Z,27.57
2018-04-14T15:02:53.193Z,28.60
2018-04-14T15:05:20.663Z,25.77
2018-04-14T15:07:48.151Z,27.50
2018-04-14T15:10:16.459Z,23.70
2018-04-14T15:12:43.990Z,22.03
2018-04-14T15:15:12.230Z,23.53
2018-04-14T15:17:39.719Z,22.37
2018-04-14T15:20:07.959Z,20.60
2018-04-14T15:22:35.422Z,19.93
2018-04-14T15:25:02.876Z,19.90
2018-04-14T15:27:30.327Z,18.63
2018-04-14T15:29:57.788Z,17.93
2018-04-14T15:32:25.244Z,18.63
2018-04-14T15:34:52.732Z,24.97
2018-04-14T15:37:20.968Z,24.23
2018-04-14T15:39:48.548Z,24.97
2018-04-14T15:42:16.023Z,30.17
2018-04-14T15:44:44.260Z,26.60
2018-04-14T15:47:11.731Z,26.10
2018-04-14T15:49:39.311Z,25.30
2018-04-14T15:52:06.822Z,23.93
2018-04-14T15:54:34.327Z,24.17
2018-04-14T15:57:09.005Z,24.83
2018-04-14T15:59:36.475Z,32.57
2018-04-14T16:02:04.017Z,26.10
2018-04-14T16:04:31.539Z,30.27
2018-04-14T16:06:59.005Z,30.20
2018-04-14T16:09:26.472Z,32.50
2018-04-14T16:11:53.911Z,32.43
2018-04-14T16:14:21.397Z,33.27
2018-04-14T16:16:48.915Z,31.13
2018-04-14T16:19:17.182Z,30.27
2018-04-14T16:21:44.658Z,30.33
2018-04-14T16:24:12.994Z,29.30
2018-04-14T16:26:40.451Z,29.53
2018-04-14T16:29:07.925Z,28.73
2018-04-14T16:31:35.391Z,29.70
2018-04-14T16:34:03.657Z,27.83
2018-04-14T16:36:31.173Z,30.27
2018-04-14T16:38:58.725Z,32.47
2018-04-14T16:41:26.186Z,29.30
2018-04-14T16:43:53.679Z,30.10
2018-04-14T16:46:21.233Z,29.53
2018-04-14T16:48:48.685Z,31.60
2018-04-14T16:51:16.143Z,29.67
2018-04-14T16:53:43.702Z,30.30
2018-04-14T16:56:11.188Z,29.10
2018-04-14T16:58:38.654Z,30.20
2018-04-14T17:01:06.869Z,28.07
2018-04-14T17:03:34.340Z,28.57
2018-04-14T17:06:01.833Z,28.97
2018-04-14T17:08:29.297Z,28.67
2018-04-14T17:10:57.504Z,27.53
2018-04-14T17:13:24.972Z,28.57
2018-04-14T17:15:52.439Z,27.87
2018-04-14T17:18:19.918Z,27.97
2018-04-14T17:20:47.368Z,29.20
2018-04-14T17:23:14.817Z,28.23
2018-04-14T17:25:42.343Z,25.20
2018-04-14T17:28:09.829Z,26.63
2018-04-14T17:30:37.334Z,26.73
2018-04-14T17:33:04.829Z,25.50
2018-04-14T17:35:32.376Z,25.93
2018-04-14T17:37:59.935Z,24.40
2018-04-14T17:40:27.399Z,25.37
2018-04-14T17:42:54.954Z,23.80
2018-04-14T17:45:22.453Z,22.23
2018-04-14T17:47:49.900Z,22.23
2018-04-14T17:50:17.377Z,23.13
2018-04-14T17:52:44.986Z,23.50
2018-04-14T17:55:12.481Z,22.80
2018-04-14T17:57:40.818Z,24.13
2018-04-14T18:00:08.311Z,24.23
2018-04-14T18:02:35.851Z,24.53
2018-04-14T18:05:03.392Z,25.70
2018-04-14T18:07:30.940Z,26.77
2018-04-14T18:09:58.403Z,25.37
2018-04-14T18:12:26.279Z,25.37
2018-04-14T18:14:53.833Z,24.63
2018-04-14T18:17:21.479Z,24.43
2018-04-14T18:19:49.096Z,22.73
2018-04-14T18:22:17.455Z,23.17
2018-04-14T18:24:44.923Z,24.27
2018-04-14T18:27:12.392Z,23.33
2018-04-14T18:29:39.855Z,22.27
2018-04-14T18:32:07.328Z,22.03
2018-04-14T18:34:35.602Z,23.40
2018-04-14T18:37:03.863Z,23.80
2018-04-14T18:39:31.741Z,24.07
2018-04-14T18:42:02.334Z,21.27
2018-04-14T18:44:29.839Z,21.50
2018-04-14T18:46:57.348Z,20.93
2018-04-14T18:49:24.926Z,20.97
2018-04-14T18:51:52.449Z,20.70
2018-04-14T18:54:19.953Z,20.07
2018-04-14T18:56:47.411Z,20.10
2018-04-14T18:59:14.971Z,19.33
2018-04-14T19:01:42.456Z,18.73
2018-04-14T19:04:10.024Z,19.83
2018-04-14T19:06:37.665Z,19.33
2018-04-14T19:09:05.919Z,20.40
2018-04-14T19:11:33.414Z,19.20
2018-04-14T19:14:00.910Z,20.43
2018-04-14T19:16:28.363Z,19.80
2018-04-14T19:18:55.839Z,19.40
2018-04-14T19:21:23.406Z,20.67
2018-04-14T19:23:50.914Z,20.07
2018-04-14T19:26:18.412Z,21.17
2018-04-14T19:28:46.088Z,20.47
2018-04-14T19:31:13.747Z,19.43
2018-04-14T19:33:41.293Z,21.30
2018-04-14T19:36:08.870Z,21.00
2018-04-14T19:38:36.334Z,21.47
2018-04-14T19:41:03.775Z,23.23
2018-04-14T19:43:31.304Z,23.33
2018-04-14T19:45:59.495Z,22.10
2018-04-14T19:48:26.952Z,21.17
2018-04-14T19:50:54.575Z,20.73
2018-04-14T19:53:22.087Z,20.37
2018-04-14T19:55:49.544Z,20.67
2018-04-14T19:58:17.798Z,20.57
2018-04-14T20:00:45.262Z,27.77
2018-04-14T20:03:14.385Z,21.13
2018-04-14T20:05:42.616Z,22.20
2018-04-14T20:08:10.212Z,20.43
2018-04-14T20:10:37.682Z,22.40
2018-04-14T20:13:05.927Z,22.03
2018-04-14T20:15:33.458Z,21.10
2018-04-14T20:18:01.151Z,20.90
2018-04-14T20:20:28.717Z,22.77
2018-04-14T20:22:56.160Z,29.03
2018-04-14T20:25:23.711Z,26.63
2018-04-14T20:27:51.271Z,23.73
2018-04-14T20:30:18.748Z,22.17
2018-04-14T20:32:46.220Z,20.67
2018-04-14T20:35:14.488Z,22.23
2018-04-14T20:37:41.994Z,21.43
2018-04-14T20:40:09.434Z,19.47
2018-04-14T20:42:36.920Z,21.40
2018-04-14T20:45:04.415Z,22.27
2018-04-14T20:47:31.856Z,22.27
2018-04-14T20:49:59.407Z,21.30
2018-04-14T20:52:26.872Z,22.63
2018-04-14T20:54:54.341Z,21.57
2018-04-14T20:57:21.867Z,21.23
2018-04-14T20:59:49.334Z,21.37
2018-04-14T21:02:16.819Z,20.47
2018-04-14T21:04:44.306Z,24.53
2018-04-14T21:07:14.883Z,24.53
2018-04-14T21:09:42.347Z,25.07
2018-04-14T21:12:09.866Z,23.90
2018-04-14T21:14:37.352Z,23.37
2018-04-14T21:17:04.842Z,24.10
2018-04-14T21:19:33.056Z,24.33
2018-04-14T21:22:00.515Z,23.60
2018-04-14T21:24:27.996Z,24.53
2018-04-14T21:26:55.458Z,24.70
2018-04-14T21:29:23.010Z,23.13
2018-04-14T21:31:50.488Z,24.93
2018-04-14T21:34:18.025Z,24.90
2018-04-14T21:36:45.537Z,24.57
2018-04-14T21:39:13.006Z,25.37
2018-04-14T21:41:40.477Z,24.77
2018-04-14T21:44:07.978Z,24.63
2018-04-14T21:46:35.423Z,27.03
2018-04-14T21:49:02.893Z,25.57
2018-04-14T21:51:30.438Z,26.13
2018-04-14T21:53:58.058Z,25.80
2018-04-14T21:56:25.545Z,25.20
2018-04-14T21:58:53.045Z,24.47
2018-04-14T22:01:21.260Z,24.00
2018-04-14T22:03:48.743Z,26.20
2018-04-14T22:06:16.237Z,24.93
2018-04-14T22:08:44.475Z,24.30
2018-04-14T22:11:11.915Z,25.80
2018-04-14T22:13:39.507Z,24.00
2018-04-14T22:16:06.991Z,24.17
2018-04-14T22:18:34.464Z,23.83
2018-04-14T22:21:01.979Z,23.27
2018-04-14T22:23:29.517Z,24.57
2018-04-14T22:25:57.073Z,23.37
2018-04-14T22:28:24.556Z,25.07
2018-04-14T22:30:52.015Z,22.43
2018-04-14T22:33:19.568Z,25.17
2018-04-14T22:35:47.119Z,25.07
2018-04-14T22:38:14.664Z,26.13
2018-04-14T22:40:42.159Z,25.90
2018-04-14T22:43:10.393Z,24.70
2018-04-14T22:45:37.844Z,26.23
2018-04-14T22:48:05.442Z,26.53
2018-04-14T22:50:32.940Z,26.17
2018-04-14T22:53:00.398Z,25.87
2018-04-14T22:55:27.870Z,26.77
2018-04-14T22:57:55.441Z,27.40
2018-04-14T23:00:22.940Z,28.17
2018-04-14T23:02:51.162Z,28.70
2018-04-14T23:05:18.634Z,29.30
2018-04-14T23:07:46.095Z,30.23
2018-04-14T23:10:13.647Z,33.37
2018-04-14T23:12:41.237Z,31.10
2018-04-14T23:15:09.479Z,32.67
2018-04-14T23:17:36.946Z,33.00
2018-04-14T23:20:04.440Z,34.70
2018-04-14T23:22:32.682Z,33.80
2018-04-14T23:25:00.123Z,34.60
2018-04-14T23:27:27.595Z,35.63
2018-04-14T23:29:55.044Z,34.13
2018-04-14T23:32:22.498Z,36.93
2018-04-14T23:34:50.126Z,34.40
2018-04-14T23:37:17.580Z,32.03
2018-04-14T23:39:45.077Z,33.40
2018-04-14T23:42:12.553Z,32.37
2018-04-14T23:44:40.011Z,32.00
2018-04-14T23:47:08.384Z,31.83
2018-04-14T23:49:35.851Z,32.17
2018-04-14T23:52:04.095Z,31.63
2018-04-14T23:54:31.606Z,31.37
2018-04-14T23:56:59.136Z,31.00
2018-04-14T23:59:26.675Z,31.33
